createdAt,value
2023-02-05T00:00:01.195Z,84.57
2023-02-05T00:02:30.283Z,84.13
2023-02-05T00:04:58.864Z,84.16
2023-02-05T00:07:27.674Z,84.01
2023-02-05T00:09:56.166Z,84.59
2023-02-05T00:12:24.813Z,84.76
2023-02-05T00:14:53.496Z,85.03
2023-02-05T00:17:22.227Z,85.45
2023-02-05T00:19:50.766Z,85.91
2023-02-05T00:22:19.076Z,85.86
2023-02-05T00:24:47.834Z,86.66
2023-02-05T00:27:17.141Z,86.49
2023-02-05T00:29:45.597Z,86.60
2023-02-05T00:32:13.888Z,86.26
2023-02-05T00:34:42.388Z,86.50
2023-02-05T00:37:10.885Z,86.63
2023-02-05T00:39:39.878Z,86.79
2023-02-05T00:42:08.576Z,86.75
2023-02-05T00:44:37.441Z,87.30
2023-02-05T00:47:06.115Z,87.71
2023-02-05T00:49:35.150Z,87.75
2023-02-05T00:52:04.496Z,87.51
2023-02-05T00:54:32.974Z,87.93
2023-02-05T00:57:01.673Z,87.10
2023-02-05T00:59:30.365Z,87.30
2023-02-05T01:01:59.966Z,87.81
2023-02-05T01:04:28.575Z,87.86
2023-02-05T01:06:57.143Z,87.96
2023-02-05T01:09:25.628Z,88.07
2023-02-05T01:11:54.848Z,88.06
2023-02-05T01:14:23.267Z,88.48
2023-02-05T01:16:51.860Z,88.37
2023-02-05T01:19:20.306Z,88.65
2023-02-05T01:21:48.663Z,88.79
2023-02-05T01:24:17.018Z,89.08
2023-02-05T01:26:47.927Z,89.34
2023-02-05T01:29:16.381Z,89.26
2023-02-05T01:31:45.193Z,89.51
2023-02-05T01:34:13.779Z,89.58
2023-02-05T01:36:42.684Z,89.88
2023-02-05T01:39:11.245Z,89.52
2023-02-05T01:41:42.056Z,89.38
2023-02-05T01:44:13.647Z,89.34
2023-02-05T01:46:43.126Z,89.49
2023-02-05T01:49:18.940Z,89.69
2023-02-05T01:51:48.810Z,90.11
2023-02-05T01:54:21.546Z,90.10
2023-02-05T01:56:54.800Z,89.93
2023-02-05T01:59:27.669Z,90.10
2023-02-05T02:01:56.522Z,90.11
2023-02-05T02:04:36.882Z,90.36
2023-02-05T02:07:08.252Z,90.68
2023-02-05T02:09:39.707Z,90.54
2023-02-05T02:12:10.709Z,90.24
2023-02-05T02:14:41.222Z,90.31
2023-02-05T02:17:11.042Z,89.61
2023-02-05T02:19:47.636Z,89.39
2023-02-05T02:22:40.344Z,89.56
2023-02-05T02:25:31.104Z,89.83
2023-02-05T02:28:06.314Z,90.40
2023-02-05T02:30:41.204Z,90.50
2023-02-05T02:33:17.669Z,90.33
2023-02-05T02:35:59.087Z,90.25
2023-02-05T02:38:33.033Z,90.22
2023-02-05T02:41:08.286Z,89.92
2023-02-05T02:43:45.109Z,90.09
2023-02-05T02:46:19.126Z,90.55
2023-02-05T02:48:50.252Z,90.54
2023-02-05T02:51:21.404Z,90.57
2023-02-05T02:53:54.785Z,90.78
2023-02-05T02:56:25.822Z,90.81
2023-02-05T02:58:57.995Z,90.51
2023-02-05T03:01:31.796Z,90.88
2023-02-05T03:04:07.162Z,90.78
2023-02-05T03:06:38.058Z,90.31
2023-02-05T03:09:13.024Z,89.87
2023-02-05T03:11:42.103Z,90.50
2023-02-05T03:14:11.328Z,91.04
2023-02-05T03:16:40.396Z,90.92
2023-02-05T03:19:10.032Z,90.44
2023-02-05T03:21:42.812Z,90.26
2023-02-05T03:24:12.574Z,90.71
2023-02-05T03:26:41.626Z,90.89
2023-02-05T03:29:35.075Z,90.78
2023-02-05T03:32:21.522Z,91.08
2023-02-05T03:35:04.567Z,91.69
2023-02-05T03:37:45.089Z,91.88
2023-02-05T03:40:24.228Z,92.42
2023-02-05T03:43:05.578Z,92.42
2023-02-05T03:45:45.338Z,92.02
2023-02-05T03:48:37.179Z,92.18
2023-02-05T03:51:18.723Z,92.46
2023-02-05T03:53:56.878Z,92.29
2023-02-05T03:56:31.062Z,91.89
2023-02-05T03:59:01.027Z,91.80
2023-02-05T04:01:30.368Z,92.88
2023-02-05T04:03:58.841Z,92.15
2023-02-05T04:06:27.374Z,91.44
2023-02-05T04:08:55.793Z,90.03
2023-02-05T04:11:24.732Z,89.76
2023-02-05T04:13:53.158Z,89.94
2023-02-05T04:16:21.457Z,89.65
2023-02-05T04:18:50.296Z,89.32
2023-02-05T04:21:18.678Z,89.57
2023-02-05T04:23:47.123Z,89.80
2023-02-05T04:26:15.999Z,89.54
2023-02-05T04:28:49.803Z,89.71
2023-02-05T04:31:18.475Z,90.61
2023-02-05T04:33:46.849Z,91.13
2023-02-05T04:36:16.183Z,91.89
2023-02-05T04:38:44.529Z,91.98
2023-02-05T04:41:12.796Z,92.33
2023-02-05T04:43:41.160Z,93.07
2023-02-05T04:46:10.953Z,92.87
2023-02-05T04:48:40.255Z,92.63
2023-02-05T04:51:10.687Z,92.41
2023-02-05T04:53:39.819Z,91.75
2023-02-05T04:56:11.523Z,91.52
2023-02-05T04:58:40.256Z,91.44
2023-02-05T05:01:13.469Z,91.66
2023-02-05T05:03:42.345Z,91.29
2023-02-05T05:06:11.300Z,91.59
2023-02-05T05:08:40.046Z,91.84
2023-02-05T05:11:10.778Z,91.94
2023-02-05T05:13:39.534Z,91.61
2023-02-05T05:16:09.979Z,91.29
2023-02-05T05:18:42.020Z,91.32
2023-02-05T05:21:11.218Z,90.38
2023-02-05T05:23:39.773Z,90.36
2023-02-05T05:26:11.116Z,91.01
2023-02-05T05:28:40.052Z,91.39
2023-02-05T05:31:10.368Z,91.71
2023-02-05T05:33:38.773Z,90.98
2023-02-05T05:36:08.404Z,90.50
2023-02-05T05:38:36.872Z,89.88
2023-02-05T05:41:24.110Z,90.31
2023-02-05T05:43:54.244Z,90.59
2023-02-05T05:46:25.396Z,90.49
2023-02-05T05:48:55.326Z,90.31
2023-02-05T05:51:25.261Z,90.02
2023-02-05T05:53:54.337Z,90.68
2023-02-05T05:56:23.331Z,91.23
2023-02-05T05:58:51.734Z,91.20
2023-02-05T06:01:22.200Z,91.52
2023-02-05T06:03:50.777Z,90.63
2023-02-05T06:06:19.115Z,89.97
2023-02-05T06:08:47.406Z,90.07
2023-02-05T06:11:15.941Z,90.59
2023-02-05T06:13:44.504Z,90.36
2023-02-05T06:16:12.993Z,90.87
2023-02-05T06:18:42.136Z,91.13
2023-02-05T06:21:10.588Z,91.44
2023-02-05T06:23:38.958Z,91.30
2023-02-05T06:26:07.326Z,91.19
2023-02-05T06:28:35.655Z,90.76
2023-02-05T06:31:04.787Z,90.19
2023-02-05T06:33:33.227Z,90.22
2023-02-05T06:36:01.605Z,91.13
2023-02-05T06:38:30.077Z,91.01
2023-02-05T06:40:58.501Z,91.08
2023-02-05T06:43:26.956Z,91.15
2023-02-05T06:45:55.482Z,91.46
2023-02-05T06:48:24.578Z,91.27
2023-02-05T06:50:53.194Z,91.83
2023-02-05T06:53:21.610Z,91.94
2023-02-05T06:55:50.085Z,91.17
2023-02-05T06:58:18.772Z,91.31
2023-02-05T07:00:47.261Z,90.83
2023-02-05T07:03:15.833Z,90.85
2023-02-05T07:05:44.924Z,90.42
2023-02-05T07:08:13.431Z,90.66
2023-02-05T07:10:42.253Z,91.62
2023-02-05T07:13:11.007Z,91.70
2023-02-05T07:15:39.587Z,92.33
2023-02-05T07:18:08.088Z,92.71
2023-02-05T07:20:37.184Z,92.50
2023-02-05T07:23:05.926Z,92.70
2023-02-05T07:25:37.315Z,92.61
2023-02-05T07:28:08.010Z,92.86
2023-02-05T07:30:37.632Z,92.71
2023-02-05T07:33:06.242Z,92.41
2023-02-05T07:35:38.704Z,92.14
2023-02-05T07:38:07.313Z,91.42
2023-02-05T07:40:37.697Z,91.13
2023-02-05T07:43:06.140Z,91.29
2023-02-05T07:45:35.033Z,90.80
2023-02-05T07:48:04.217Z,90.77
2023-02-05T07:50:32.895Z,90.80
2023-02-05T07:53:01.596Z,90.46
2023-02-05T07:55:30.344Z,90.10
2023-02-05T07:57:58.986Z,89.88
2023-02-05T08:00:27.705Z,89.13
2023-02-05T08:02:56.342Z,88.50
2023-02-05T08:05:25.092Z,88.84
2023-02-05T08:07:55.020Z,89.65
2023-02-05T08:10:24.435Z,89.89
2023-02-05T08:12:53.046Z,89.88
2023-02-05T08:15:21.913Z,90.01
2023-02-05T08:17:50.765Z,90.03
2023-02-05T08:20:19.973Z,90.33
2023-02-05T08:22:48.923Z,91.11
2023-02-05T08:25:17.936Z,90.97
2023-02-05T08:27:48.475Z,91.09
2023-02-05T08:30:20.902Z,90.86
2023-02-05T08:32:48.827Z,90.62
2023-02-05T08:35:18.393Z,90.73
2023-02-05T08:37:47.903Z,90.86
2023-02-05T08:40:16.789Z,91.51
2023-02-05T08:42:46.088Z,91.94
2023-02-05T08:45:15.767Z,91.50
2023-02-05T08:47:44.469Z,91.03
2023-02-05T08:50:13.317Z,90.65
2023-02-05T08:52:41.932Z,91.15
2023-02-05T08:55:11.227Z,91.48
2023-02-05T08:57:40.189Z,91.05
2023-02-05T09:00:12.217Z,91.22
2023-02-05T09:02:42.975Z,91.05
2023-02-05T09:05:12.223Z,90.31
2023-02-05T09:07:41.675Z,89.67
2023-02-05T09:10:12.632Z,89.88
2023-02-05T09:12:41.125Z,89.20
2023-02-05T09:15:10.991Z,89.26
2023-02-05T09:17:39.555Z,89.17
2023-02-05T09:20:10.424Z,88.58
2023-02-05T09:22:39.211Z,88.18
2023-02-05T09:25:09.694Z,88.05
2023-02-05T09:27:38.474Z,87.97
2023-02-05T09:30:08.947Z,88.07
2023-02-05T09:32:37.529Z,88.21
2023-02-05T09:35:06.893Z,87.64
2023-02-05T09:37:35.461Z,86.40
2023-02-05T09:40:21.695Z,85.53
2023-02-05T09:43:00.697Z,84.53
2023-02-05T09:45:52.136Z,84.22
2023-02-05T09:48:49.092Z,83.78
2023-02-05T09:51:20.474Z,83.19
2023-02-05T09:53:54.352Z,82.67
2023-02-05T09:56:24.049Z,82.52
2023-02-05T09:58:54.316Z,81.69
2023-02-05T10:01:41.174Z,81.50
2023-02-05T10:04:10.815Z,81.24
2023-02-05T10:07:16.827Z,80.91
2023-02-05T10:10:07.026Z,80.97
2023-02-05T10:12:48.011Z,80.68
2023-02-05T10:15:37.872Z,80.46
2023-02-05T10:18:20.938Z,80.28
2023-02-05T10:20:58.184Z,79.62
2023-02-05T10:23:43.148Z,78.56
2023-02-05T10:26:12.721Z,78.53
2023-02-05T10:29:05.571Z,78.37
2023-02-05T10:31:41.965Z,78.64
2023-02-05T10:34:27.021Z,78.09
2023-02-05T10:36:55.519Z,77.22
2023-02-05T10:39:29.680Z,76.70
2023-02-05T10:42:04.948Z,75.60
2023-02-05T10:44:38.504Z,74.72
2023-02-05T10:47:12.969Z,74.70
2023-02-05T10:49:48.009Z,73.54
2023-02-05T10:52:17.209Z,73.13
2023-02-05T10:54:46.356Z,72.96
2023-02-05T10:57:17.724Z,73.14
2023-02-05T10:59:53.890Z,73.25
2023-02-05T11:02:32.800Z,73.25
2023-02-05T11:05:13.786Z,73.43
2023-02-05T11:07:45.174Z,72.52
2023-02-05T11:10:19.306Z,71.82
2023-02-05T11:12:50.090Z,72.06
2023-02-05T11:15:25.837Z,71.45
2023-02-05T11:17:59.417Z,71.14
2023-02-05T11:20:33.442Z,70.63
2023-02-05T11:23:23.477Z,70.81
2023-02-05T11:25:54.216Z,70.73
2023-02-05T11:28:27.248Z,70.51
2023-02-05T11:30:56.973Z,70.19
2023-02-05T11:33:29.961Z,71.01
2023-02-05T11:36:02.043Z,70.90
2023-02-05T11:38:43.900Z,70.45
2023-02-05T11:41:15.449Z,70.37
2023-02-05T11:43:50.154Z,70.21
2023-02-05T11:46:22.946Z,69.90
2023-02-05T11:48:58.224Z,69.48
2023-02-05T11:51:41.558Z,68.93
2023-02-05T11:54:18.747Z,68.29
2023-02-05T11:57:01.628Z,68.11
2023-02-05T11:59:30.399Z,68.60
2023-02-05T12:02:25.356Z,68.05
2023-02-05T12:05:00.689Z,67.61
2023-02-05T12:07:34.068Z,66.84
2023-02-05T12:10:14.224Z,66.86
2023-02-05T12:12:53.968Z,67.56
2023-02-05T12:15:27.197Z,67.28
2023-02-05T12:18:07.265Z,66.75
2023-02-05T12:20:39.795Z,66.56
2023-02-05T12:23:27.328Z,66.16
2023-02-05T12:26:14.180Z,65.86
2023-02-05T12:28:53.993Z,65.20
2023-02-05T12:31:30.100Z,65.84
2023-02-05T12:34:23.750Z,65.92
2023-02-05T12:37:15.126Z,66.66
2023-02-05T12:39:49.943Z,66.54
2023-02-05T12:42:31.896Z,65.23
2023-02-05T12:45:35.439Z,65.40
2023-02-05T12:48:16.442Z,65.94
2023-02-05T12:51:01.512Z,65.48
2023-02-05T12:53:44.247Z,64.68
2023-02-05T12:56:21.117Z,64.79
2023-02-05T12:58:54.275Z,64.52
2023-02-05T13:01:37.529Z,64.23
2023-02-05T13:04:13.275Z,64.04
2023-02-05T13:06:48.391Z,63.71
2023-02-05T13:09:22.585Z,64.33
2023-02-05T13:11:56.107Z,62.89
2023-02-05T13:14:30.082Z,64.64
2023-02-05T13:17:04.522Z,65.17
2023-02-05T13:19:40.150Z,64.72
2023-02-05T13:22:35.559Z,64.53
2023-02-05T13:25:38.593Z,63.34
2023-02-05T13:28:42.360Z,62.83
2023-02-05T13:31:17.024Z,62.36
2023-02-05T13:33:46.003Z,61.70
2023-02-05T13:36:32.837Z,61.01
2023-02-05T13:39:17.820Z,60.38
2023-02-05T13:42:03.518Z,59.83
2023-02-05T13:45:12.344Z,59.99
2023-02-05T13:47:57.088Z,59.36
2023-02-05T13:51:09.601Z,58.55
2023-02-05T13:53:47.071Z,58.34
2023-02-05T13:56:36.553Z,57.79
2023-02-05T13:59:15.854Z,57.93
2023-02-05T14:01:56.251Z,58.75
2023-02-05T14:04:33.566Z,58.54
2023-02-05T14:07:08.873Z,58.17
2023-02-05T14:09:46.060Z,59.00
2023-02-05T14:12:26.891Z,58.94
2023-02-05T14:15:36.311Z,58.95
2023-02-05T14:18:09.018Z,59.93
2023-02-05T14:20:44.805Z,61.07
2023-02-05T14:23:38.948Z,62.38
2023-02-05T14:26:12.156Z,62.17
2023-02-05T14:28:49.968Z,61.54
2023-02-05T14:31:50.321Z,61.79
2023-02-05T14:34:48.546Z,62.17
2023-02-05T14:37:40.865Z,63.45
2023-02-05T14:40:29.575Z,62.37
2023-02-05T14:43:13.700Z,61.71
2023-02-05T14:45:51.322Z,62.11
2023-02-05T14:48:27.744Z,62.86
2023-02-05T14:51:18.087Z,63.55
2023-02-05T14:53:58.638Z,64.85
2023-02-05T14:56:39.462Z,65.31
2023-02-05T14:59:29.339Z,65.61
2023-02-05T15:02:02.419Z,64.91
2023-02-05T15:04:52.815Z,66.00
2023-02-05T15:07:28.656Z,66.06
2023-02-05T15:10:04.890Z,67.41
2023-02-05T15:13:01.698Z,68.17
2023-02-05T15:15:36.149Z,67.58
2023-02-05T15:18:22.354Z,68.41
2023-02-05T15:20:57.573Z,68.91
2023-02-05T15:23:36.537Z,67.07
2023-02-05T15:26:15.868Z,66.66
2023-02-05T15:28:57.342Z,65.96
2023-02-05T15:31:38.588Z,66.38
2023-02-05T15:34:28.082Z,66.59
2023-02-05T15:37:06.533Z,67.07
2023-02-05T15:39:48.556Z,67.56
2023-02-05T15:42:25.197Z,68.05
2023-02-05T15:44:57.258Z,68.34
2023-02-05T15:47:30.508Z,68.60
2023-02-05T15:50:03.425Z,68.45
2023-02-05T15:52:35.764Z,68.64
2023-02-05T15:55:17.673Z,69.26
2023-02-05T15:57:50.783Z,69.81
2023-02-05T16:00:23.504Z,69.99
2023-02-05T16:02:59.618Z,70.36
2023-02-05T16:05:33.331Z,70.56
2023-02-05T16:08:15.994Z,71.27
2023-02-05T16:10:57.678Z,71.11
2023-02-05T16:13:30.172Z,71.29
2023-02-05T16:16:07.497Z,72.13
2023-02-05T16:18:44.957Z,72.07
2023-02-05T16:21:23.969Z,71.85
2023-02-05T16:23:59.000Z,72.66
2023-02-05T16:26:37.140Z,72.93
2023-02-05T16:29:25.789Z,72.65
2023-02-05T16:32:04.346Z,73.61
2023-02-05T16:34:40.443Z,73.14
2023-02-05T16:37:19.700Z,74.65
2023-02-05T16:39:54.562Z,74.84
2023-02-05T16:42:38.196Z,75.87
2023-02-05T16:45:25.737Z,75.72
2023-02-05T16:48:23.859Z,75.67
2023-02-05T16:50:57.762Z,76.94
2023-02-05T16:53:31.696Z,77.04
2023-02-05T16:56:15.625Z,76.68
2023-02-05T16:58:49.949Z,78.13
2023-02-05T17:01:27.719Z,79.08
2023-02-05T17:03:59.990Z,78.41
2023-02-05T17:06:36.544Z,78.69
2023-02-05T17:09:08.431Z,78.05
2023-02-05T17:11:42.037Z,78.17
2023-02-05T17:14:23.697Z,78.55
2023-02-05T17:17:01.806Z,79.72
2023-02-05T17:19:35.120Z,79.46
2023-02-05T17:22:23.362Z,79.08
2023-02-05T17:24:56.641Z,79.74
2023-02-05T17:27:32.159Z,79.78
2023-02-05T17:30:07.569Z,79.73
2023-02-05T17:32:39.887Z,79.34
2023-02-05T17:35:18.251Z,79.94
2023-02-05T17:37:50.769Z,80.43
2023-02-05T17:40:23.114Z,80.54
2023-02-05T17:42:53.743Z,80.98
2023-02-05T17:45:28.326Z,81.26
2023-02-05T17:48:00.785Z,81.21
2023-02-05T17:50:36.501Z,81.01
2023-02-05T17:53:11.384Z,80.98
2023-02-05T17:55:43.402Z,80.74
2023-02-05T17:58:15.332Z,80.75
2023-02-05T18:00:47.291Z,80.79
2023-02-05T18:03:28.471Z,81.56
2023-02-05T18:06:02.441Z,82.41
2023-02-05T18:08:36.253Z,82.79
2023-02-05T18:11:09.063Z,82.78
2023-02-05T18:13:43.747Z,83.19
2023-02-05T18:16:15.875Z,82.43
2023-02-05T18:18:49.112Z,82.85
2023-02-05T18:21:24.679Z,83.47
2023-02-05T18:23:59.753Z,82.90
2023-02-05T18:26:34.063Z,82.88
2023-02-05T18:29:05.911Z,83.50
2023-02-05T18:31:42.653Z,83.64
2023-02-05T18:34:15.021Z,83.91
2023-02-05T18:36:50.057Z,83.04
2023-02-05T18:39:29.631Z,81.97
2023-02-05T18:42:02.214Z,81.50
2023-02-05T18:44:34.214Z,80.99
2023-02-05T18:47:07.198Z,81.08
2023-02-05T18:49:39.169Z,81.88
2023-02-05T18:52:11.879Z,81.86
2023-02-05T18:54:47.903Z,82.56
2023-02-05T18:57:20.790Z,83.77
2023-02-05T18:59:51.408Z,84.21
2023-02-05T19:02:23.903Z,84.67
2023-02-05T19:04:56.462Z,84.69
2023-02-05T19:07:29.577Z,84.23
2023-02-05T19:10:02.512Z,84.13
2023-02-05T19:12:35.971Z,84.94
2023-02-05T19:15:11.450Z,85.52
2023-02-05T19:17:45.632Z,85.41
2023-02-05T19:20:20.171Z,84.38
2023-02-05T19:22:55.147Z,85.12
2023-02-05T19:25:31.123Z,86.30
2023-02-05T19:28:03.199Z,86.56
2023-02-05T19:30:38.052Z,86.36
2023-02-05T19:33:10.195Z,87.16
2023-02-05T19:35:42.700Z,87.17
2023-02-05T19:38:19.786Z,86.02
2023-02-05T19:40:55.117Z,85.82
2023-02-05T19:43:29.291Z,85.92
2023-02-05T19:46:05.256Z,87.11
2023-02-05T19:48:39.470Z,87.04
2023-02-05T19:51:13.483Z,87.02
2023-02-05T19:53:47.508Z,87.24
2023-02-05T19:56:21.257Z,87.35
2023-02-05T19:58:55.411Z,86.75
2023-02-05T20:01:29.339Z,86.08
2023-02-05T20:04:11.136Z,86.08
2023-02-05T20:06:45.039Z,85.84
2023-02-05T20:09:18.239Z,85.60
2023-02-05T20:11:54.262Z,86.15
2023-02-05T20:14:26.659Z,86.42
2023-02-05T20:16:58.553Z,86.70
2023-02-05T20:19:33.148Z,87.56
2023-02-05T20:22:06.038Z,88.15
2023-02-05T20:24:38.130Z,88.72
2023-02-05T20:27:10.202Z,88.20
2023-02-05T20:29:59.834Z,87.72
2023-02-05T20:32:32.201Z,88.38
2023-02-05T20:35:02.864Z,88.33
2023-02-05T20:37:36.886Z,88.03
2023-02-05T20:40:10.411Z,87.80
2023-02-05T20:42:42.347Z,91.39
2023-02-05T20:45:14.280Z,100.00
2023-02-05T20:47:46.192Z,92.51
2023-02-05T20:50:21.099Z,89.64
2023-02-05T20:52:54.392Z,89.61
2023-02-05T20:55:26.334Z,89.66
2023-02-05T20:57:58.357Z,89.07
2023-02-05T21:00:30.407Z,88.45
2023-02-05T21:03:02.344Z,87.98
2023-02-05T21:05:35.609Z,87.65
2023-02-05T21:08:07.919Z,87.68
2023-02-05T21:10:40.108Z,87.94
2023-02-05T21:13:11.909Z,88.41
2023-02-05T21:15:43.779Z,88.31
2023-02-05T21:18:15.628Z,89.21
2023-02-05T21:20:47.605Z,90.52
2023-02-05T21:23:21.377Z,90.47
2023-02-05T21:25:53.713Z,89.60
2023-02-05T21:28:25.646Z,88.69
2023-02-05T21:31:06.306Z,89.24
2023-02-05T21:33:38.799Z,89.79
2023-02-05T21:36:13.817Z,90.51
2023-02-05T21:38:46.140Z,92.16
2023-02-05T21:41:19.945Z,100.00
2023-02-05T21:43:53.475Z,100.00
2023-02-05T21:46:29.118Z,100.00
2023-02-05T21:49:02.504Z,92.87
2023-02-05T21:51:36.378Z,90.24
2023-02-05T21:54:08.734Z,87.16
2023-02-05T21:56:43.199Z,86.38
2023-02-05T21:59:16.144Z,86.21
2023-02-05T22:01:48.352Z,85.91
2023-02-05T22:04:20.436Z,85.08
2023-02-05T22:06:53.050Z,84.84
2023-02-05T22:09:25.018Z,85.60
2023-02-05T22:12:02.686Z,87.05
2023-02-05T22:14:35.617Z,87.66
2023-02-05T22:17:06.105Z,88.83
2023-02-05T22:19:37.863Z,89.59
2023-02-05T22:22:09.868Z,89.94
2023-02-05T22:24:41.785Z,90.56
2023-02-05T22:27:13.893Z,89.72
2023-02-05T22:29:46.929Z,89.42
2023-02-05T22:32:18.800Z,89.34
2023-02-05T22:34:50.765Z,89.87
2023-02-05T22:37:22.578Z,90.03
2023-02-05T22:39:54.494Z,90.90
2023-02-05T22:42:27.029Z,91.20
2023-02-05T22:44:57.853Z,91.16
2023-02-05T22:47:29.768Z,91.03
2023-02-05T22:50:02.126Z,91.45
2023-02-05T22:52:34.079Z,91.62
2023-02-05T22:55:06.273Z,91.97
2023-02-05T22:57:38.094Z,92.69
2023-02-05T23:00:11.855Z,92.70
2023-02-05T23:02:43.738Z,92.66
2023-02-05T23:05:15.656Z,92.37
2023-02-05T23:07:51.339Z,92.05
2023-02-05T23:10:24.191Z,91.96
2023-02-05T23:12:56.194Z,92.33
2023-02-05T23:15:28.414Z,92.27
2023-02-05T23:18:00.322Z,92.77
2023-02-05T23:20:32.362Z,91.78
2023-02-05T23:23:04.628Z,91.19
2023-02-05T23:25:38.463Z,90.88
2023-02-05T23:28:10.590Z,91.25
2023-02-05T23:30:42.783Z,91.40
2023-02-05T23:33:14.872Z,91.63
2023-02-05T23:35:46.773Z,92.25
2023-02-05T23:38:18.615Z,93.01
2023-02-05T23:40:51.126Z,91.92
2023-02-05T23:43:21.498Z,90.95
2023-02-05T23:45:55.793Z,89.30
2023-02-05T23:48:27.784Z,89.91
2023-02-05T23:50:59.869Z,90.21
2023-02-05T23:53:31.709Z,89.77
2023-02-05T23:56:03.486Z,90.07
2023-02-05T23:58:35.410Z,90.25
